地図

経路データ

SID SEASON NUMBER BASIN SUBBASIN NAME ISO_TIME NATURE LAT LON WMO_WIND WMO_PRES WMO_AGENCY TRACK_TYPE DIST2LAND LANDFALL IFLAG USA_AGENCY USA_ATCF_ID USA_LAT USA_LON USA_RECORD USA_STATUS USA_WIND USA_PRES USA_SSHS USA_R34_NE USA_R34_SE USA_R34_SW USA_R34_NW USA_R50_NE USA_R50_SE USA_R50_SW USA_R50_NW USA_R64_NE USA_R64_SE USA_R64_SW USA_R64_NW USA_POCI USA_ROCI USA_RMW USA_EYE TOKYO_LAT TOKYO_LON TOKYO_GRADE TOKYO_WIND TOKYO_PRES TOKYO_R50_DIR TOKYO_R50_LONG TOKYO_R50_SHORT TOKYO_R30_DIR TOKYO_R30_LONG TOKYO_R30_SHORT TOKYO_LAND CMA_LAT CMA_LON CMA_CAT CMA_WIND CMA_PRES HKO_LAT HKO_LON HKO_CAT HKO_WIND HKO_PRES NEWDELHI_LAT NEWDELHI_LON NEWDELHI_GRADE NEWDELHI_WIND NEWDELHI_PRES NEWDELHI_CI NEWDELHI_DP NEWDELHI_POCI REUNION_LAT REUNION_LON REUNION_TYPE REUNION_WIND REUNION_PRES REUNION_TNUM REUNION_CI REUNION_RMW REUNION_R34_NE REUNION_R34_SE REUNION_R34_SW REUNION_R34_NW REUNION_R50_NE REUNION_R50_SE REUNION_R50_SW REUNION_R50_NW REUNION_R64_NE REUNION_R64_SE REUNION_R64_SW REUNION_R64_NW BOM_LAT BOM_LON BOM_TYPE BOM_WIND BOM_PRES BOM_TNUM BOM_CI BOM_RMW BOM_R34_NE BOM_R34_SE BOM_R34_SW BOM_R34_NW BOM_R50_NE BOM_R50_SE BOM_R50_SW BOM_R50_NW BOM_R64_NE BOM_R64_SE BOM_R64_SW BOM_R64_NW BOM_ROCI BOM_POCI BOM_EYE BOM_POS_METHOD BOM_PRES_METHOD NADI_LAT NADI_LON NADI_CAT NADI_WIND NADI_PRES WELLINGTON_LAT WELLINGTON_LON WELLINGTON_WIND WELLINGTON_PRES DS824_LAT DS824_LON DS824_STAGE DS824_WIND DS824_PRES TD9636_LAT TD9636_LON TD9636_STAGE TD9636_WIND TD9636_PRES TD9635_LAT TD9635_LON TD9635_WIND TD9635_PRES TD9635_ROCI NEUMANN_LAT NEUMANN_LON NEUMANN_CLASS NEUMANN_WIND NEUMANN_PRES MLC_LAT MLC_LON MLC_CLASS MLC_WIND MLC_PRES USA_GUST BOM_GUST BOM_GUST_PER REUNION_GUST REUNION_GUST_PER USA_SEAHGT USA_SEARAD_NE USA_SEARAD_SE USA_SEARAD_SW USA_SEARAD_NW STORM_SPEED STORM_DIR
1934284S08072 1935 65 SI MM NOT_NAMED 1934-10-11 06:00:00 NR -7.70000 71.6000 reunion main 1813 1813 _____O________ -1 -7.70000 71.6000 99 9.90000 1 234
1934284S08072 1935 65 SI MM NOT_NAMED 1934-10-11 09:00:00 NR -7.74069 71.5384 main 1819 1819 _____P________ -1 -7.74069 71.5384 99 2 237
1934284S08072 1935 65 SI MM NOT_NAMED 1934-10-11 12:00:00 NR -7.78108 71.4719 main 1829 1829 _____P________ -1 -7.78108 71.4719 99 2 241
1934284S08072 1935 65 SI MM NOT_NAMED 1934-10-11 15:00:00 NR -7.82086 71.3958 main 1835 1835 _____P________ -1 -7.82086 71.3958 99 2 244
1934284S08072 1935 65 SI MM NOT_NAMED 1934-10-11 18:00:00 NR -7.85975 71.3051 main 1850 1850 _____P________ -1 -7.85975 71.3051 99 2 249
1934284S08072 1935 65 SI MM NOT_NAMED 1934-10-11 21:00:00 NR -7.89742 71.1950 main 1856 1856 _____P________ -1 -7.89742 71.1950 99 3 253
1934284S08072 1935 65 SI MM NOT_NAMED 1934-10-12 00:00:00 NR -7.93357 71.0607 main 1862 1862 _____P________ -1 -7.93357 71.0607 99 3 257
1934284S08072 1935 65 SI MM NOT_NAMED 1934-10-12 03:00:00 NR -7.96788 70.8973 main 1884 1884 _____P________ -1 -7.96788 70.8973 99 4 260
1934284S08072 1935 65 SI MM NOT_NAMED 1934-10-12 06:00:00 NR -8.00000 70.7000 reunion main 1896 1896 _____O________ -1 -8.00000 70.7000 99 9.90000 4 262
1934284S08072 1935 65 SI MM NOT_NAMED 1934-10-12 09:00:00 NR -8.02971 70.4654 main 1909 1901 _____P________ -1 -8.02971 70.4654 99 5 263
1934284S08072 1935 65 SI MM NOT_NAMED 1934-10-12 12:00:00 NR -8.05728 70.1964 main 1901 1878 _____P________ -1 -8.05728 70.1964 99 6 265
1934284S08072 1935 65 SI MM NOT_NAMED 1934-10-12 15:00:00 NR -8.08309 69.8972 main 1878 1856 _____P________ -1 -8.08309 69.8972 99 6 265
1934284S08072 1935 65 SI MM NOT_NAMED 1934-10-12 18:00:00 NR -8.10754 69.5722 main 1856 1826 _____P________ -1 -8.10754 69.5722 99 7 266
1934284S08072 1935 65 SI MM NOT_NAMED 1934-10-12 21:00:00 NR -8.13103 69.2256 main 1826 1796 _____P________ -1 -8.13103 69.2256 99 7 266
1934284S08072 1935 65 SI MM NOT_NAMED 1934-10-13 00:00:00 NR -8.15399 68.8619 main 1796 1768 _____P________ -1 -8.15399 68.8619 99 7 266
1934284S08072 1935 65 SI MM NOT_NAMED 1934-10-13 03:00:00 NR -8.17683 68.4853 main 1768 1740 _____P________ -1 -8.17683 68.4853 99 8 267
1934284S08072 1935 65 SI MM NOT_NAMED 1934-10-13 06:00:00 NR -8.20000 68.1000 reunion main 1740 1712 _____O________ -1 -8.20000 68.1000 99 9.90000 8 267
1934284S08072 1935 65 SI MM NOT_NAMED 1934-10-13 09:00:00 NR -8.22330 67.7088 main 1712 1685 _____P________ -1 -8.22330 67.7088 99 8 267
1934284S08072 1935 65 SI MM NOT_NAMED 1934-10-13 12:00:00 NR -8.24637 67.3026 main 1685 1650 _____P________ -1 -8.24637 67.3026 99 8 267
1934284S08072 1935 65 SI MM NOT_NAMED 1934-10-13 15:00:00 NR -8.26955 66.8875 main 1650 1625 _____P________ -1 -8.26955 66.8875 99 8 267
1934284S08072 1935 65 SI MM NOT_NAMED 1934-10-13 18:00:00 NR -8.29317 66.4700 main 1625 1600 _____P________ -1 -8.29317 66.4700 99 8 267
1934284S08072 1935 65 SI MM NOT_NAMED 1934-10-13 21:00:00 NR -8.31762 66.0562 main 1600 1576 _____P________ -1 -8.31762 66.0562 99 8 266
1934284S08072 1935 65 SI MM NOT_NAMED 1934-10-14 00:00:00 NR -8.34328 65.6525 main 1576 1544 _____P________ -1 -8.34328 65.6525 99 8 266
1934284S08072 1935 65 SI MM NOT_NAMED 1934-10-14 03:00:00 NR -8.37060 65.2650 main 1544 1521 _____P________ -1 -8.37060 65.2650 99 7 266
1934284S08072 1935 65 SI MM NOT_NAMED 1934-10-14 06:00:00 NR -8.40000 64.9000 reunion main 1521 1505 _____O________ -1 -8.40000 64.9000 99 9.90000 7 265
1934284S08072 1935 65 SI MM NOT_NAMED 1934-10-14 09:00:00 NR -8.43236 64.5786 main 1505 1479 _____P________ -1 -8.43236 64.5786 99 6 264
1934284S08072 1935 65 SI MM NOT_NAMED 1934-10-14 12:00:00 NR -8.46698 64.2782 main 1479 1464 _____P________ -1 -8.46698 64.2782 99 6 263
1934284S08072 1935 65 SI MM NOT_NAMED 1934-10-14 15:00:00 NR -8.50347 63.9950 main 1464 1450 _____P________ -1 -8.50347 63.9950 99 6 262
1934284S08072 1935 65 SI MM NOT_NAMED 1934-10-14 18:00:00 NR -8.54145 63.7251 main 1450 1430 _____P________ -1 -8.54145 63.7251 99 5 262
1934284S08072 1935 65 SI MM NOT_NAMED 1934-10-14 21:00:00 NR -8.58051 63.4645 main 1430 1416 _____P________ -1 -8.58051 63.4645 99 5 261
1934284S08072 1935 65 SI MM NOT_NAMED 1934-10-15 00:00:00 NR -8.62024 63.2094 main 1416 1397 _____P________ -1 -8.62024 63.2094 99 5 261
1934284S08072 1935 65 SI MM NOT_NAMED 1934-10-15 03:00:00 NR -8.66022 62.9559 main 1397 1384 _____P________ -1 -8.66022 62.9559 99 5 261
1934284S08072 1935 65 SI MM NOT_NAMED 1934-10-15 06:00:00 NR -8.70000 62.7000 reunion main 1384 1372 _____O________ -1 -8.70000 62.7000 99 9.90000 5 262
1934284S08072 1935 65 SI MM NOT_NAMED 1934-10-15 09:00:00 NR -8.73749 62.4116 main 1372 1350 _____P________ -1 -8.73749 62.4116 99 6 263
1934284S08072 1935 65 SI MM NOT_NAMED 1934-10-15 12:00:00 NR -8.77502 62.1216 main 1350 1339 _____P________ -1 -8.77502 62.1216 99 6 263
1934284S08072 1935 65 SI MM NOT_NAMED 1934-10-15 15:00:00 NR -8.81256 61.8327 main 1339 1332 _____P________ -1 -8.81256 61.8327 99 6 262
1934284S08072 1935 65 SI MM NOT_NAMED 1934-10-15 18:00:00 NR -8.85009 61.5475 main 1318 1312 _____P________ -1 -8.85009 61.5475 99 6 262
1934284S08072 1935 65 SI MM NOT_NAMED 1934-10-15 21:00:00 NR -8.88759 61.2690 main 1312 1296 _____P________ -1 -8.88759 61.2690 99 5 262
1934284S08072 1935 65 SI MM NOT_NAMED 1934-10-16 00:00:00 NR -8.92508 60.9997 main 1296 1271 _____P________ -1 -8.92508 60.9997 99 5 262
1934284S08072 1935 65 SI MM NOT_NAMED 1934-10-16 03:00:00 NR -8.96254 60.7425 main 1261 1241 _____P________ -1 -8.96254 60.7425 99 5 261
1934284S08072 1935 65 SI MM NOT_NAMED 1934-10-16 06:00:00 NR -9.00000 60.5000 reunion main 1241 1220 _____O________ -1 -9.00000 60.5000 99 9.90000 5 260
1934284S08072 1935 65 SI MM NOT_NAMED 1934-10-16 09:00:00 NR -9.04097 60.2933 main 1220 1196 _____P________ -1 -9.04097 60.2933 99 4 258
1934284S08072 1935 65 SI MM NOT_NAMED 1934-10-16 12:00:00 NR -9.08247 60.1031 main 1196 1175 _____P________ -1 -9.08247 60.1031 99 4 257
1934284S08072 1935 65 SI MM NOT_NAMED 1934-10-16 15:00:00 NR -9.12377 59.9238 main 1175 1161 _____P________ -1 -9.12377 59.9238 99 4 257
1934284S08072 1935 65 SI MM NOT_NAMED 1934-10-16 18:00:00 NR -9.16410 59.7499 main 1151 1141 _____P________ -1 -9.16410 59.7499 99 4 257
1934284S08072 1935 65 SI MM NOT_NAMED 1934-10-16 21:00:00 NR -9.20267 59.5761 main 1141 1121 _____P________ -1 -9.20267 59.5761 99 4 258
1934284S08072 1935 65 SI MM NOT_NAMED 1934-10-17 00:00:00 NR -9.23871 59.3968 main 1121 1096 _____P________ -1 -9.23871 59.3968 99 4 259
1934284S08072 1935 65 SI MM NOT_NAMED 1934-10-17 03:00:00 NR -9.27143 59.2066 main 1096 1076 _____P________ -1 -9.27143 59.2066 99 4 261
1934284S08072 1935 65 SI MM NOT_NAMED 1934-10-17 06:00:00 NR -9.30000 59.0000 reunion main 1076 1056 _____O________ -1 -9.30000 59.0000 99 9.90000 4 263
1934284S08072 1935 65 SI MM NOT_NAMED 1934-10-17 09:00:00 NR -9.32384 58.7729 main 1056 1026 _____P________ -1 -9.32384 58.7729 99 5 265
1934284S08072 1935 65 SI MM NOT_NAMED 1934-10-17 12:00:00 NR -9.34329 58.5266 main 1026 1001 _____P________ -1 -9.34329 58.5266 99 5 266
1934284S08072 1935 65 SI MM NOT_NAMED 1934-10-17 15:00:00 NR -9.35891 58.2639 main 1001 971 _____P________ -1 -9.35891 58.2639 99 5 267
1934284S08072 1935 65 SI MM NOT_NAMED 1934-10-17 18:00:00 NR -9.37128 57.9875 main 971 941 _____P________ -1 -9.37128 57.9875 99 6 268
1934284S08072 1935 65 SI MM NOT_NAMED 1934-10-17 21:00:00 NR -9.38098 57.7002 main 941 912 _____P________ -1 -9.38098 57.7002 99 6 268
1934284S08072 1935 65 SI MM NOT_NAMED 1934-10-18 00:00:00 NR -9.38860 57.4046 main 912 883 _____P________ -1 -9.38860 57.4046 99 6 269
1934284S08072 1935 65 SI MM NOT_NAMED 1934-10-18 03:00:00 NR -9.39474 57.1037 main 883 854 _____P________ -1 -9.39474 57.1037 99 6 269
1934284S08072 1935 65 SI MM NOT_NAMED 1934-10-18 06:00:00 NR -9.40000 56.8000 reunion main 854 _____O________ -1 -9.40000 56.8000 99 9.90000 6 269

IBTrACS Databaseについて

本データベースは、米国NOAAが公開する1842年以降の世界の熱帯低気圧のベストトラックデータアーカイブInternational Best Track Archive for Climate Stewardship (IBTrACS)を、ウェブで閲覧しやすい形式に変換したものです。

最終更新日:2021-11-26